Time;durP1;ratioP1;P1;durP2;ratioP2;P2;SDS_P1;SDS_P2;PMS_P1;PMS_P2;Temp;Humidity;BMP_temperature;BMP_pressure;BME280_temperature;BME280_humidity;BME280_pressure;Samples;Min_cycle;Max_cycle;Signal;HPM_P1;HPM_P2
2022/04/21 00:01:00;;;;;;;10.63;9.63;;;;;;;5.65;88.37;99560.42;1694961;83;21641;-70
2022/04/21 00:03:26;;;;;;;10.60;9.63;;;;;;;5.63;88.46;99563.75;1689994;83;21589;-69
2022/04/21 00:05:54;;;;;;;11.20;10.17;;;;;;;5.59;88.55;99559.81;1710735;83;21055;-69
2022/04/21 00:08:22;;;;;;;10.10;9.20;;;;;;;5.61;88.50;99554.69;1693086;83;21112;-69
2022/04/21 00:10:49;;;;;;;9.50;8.63;;;;;;;5.59;88.59;99557.98;1692405;83;21073;-69
2022/04/21 00:13:17;;;;;;;11.03;10.00;;;;;;;5.57;88.94;99556.52;1704440;83;21050;-69
2022/04/21 00:15:45;;;;;;;11.20;10.20;;;;;;;5.56;89.02;99561.00;1702956;83;21075;-69
2022/04/21 00:18:12;;;;;;;10.77;9.77;;;;;;;5.57;89.14;99557.84;1692808;83;21042;-69
2022/04/21 00:20:40;;;;;;;10.97;9.97;;;;;;;5.50;89.22;99549.81;1706048;83;21178;-70
2022/04/21 00:25:59;;;;;;;11.53;10.50;;;;;;;5.43;89.38;99556.78;1693725;83;21064;-69
2022/04/21 00:28:29;;;;;;;11.07;9.97;;;;;;;5.42;89.75;99559.09;1693316;83;21200;-69
2022/04/21 00:30:57;;;;;;;10.57;9.67;;;;;;;5.43;89.60;99555.46;1692969;83;21115;-68
2022/04/21 00:33:24;;;;;;;11.07;9.97;;;;;;;5.40;89.83;99555.29;1692777;83;21121;-69
2022/04/21 00:35:50;;;;;;;11.85;10.60;;;;;;;5.40;89.96;99559.25;1694808;83;21529;-70
2022/04/21 00:38:18;;;;;;;11.77;10.03;;;;;;;5.42;89.88;99555.12;1702609;83;21527;-69
2022/04/21 00:40:44;;;;;;;11.08;10.13;;;;;;;5.45;89.97;99560.07;1694022;83;21046;-70
2022/04/21 00:43:12;;;;;;;10.53;9.53;;;;;;;5.46;90.06;99555.09;1692561;83;22373;-69
2022/04/21 00:45:38;;;;;;;11.60;10.55;;;;;;;5.49;89.74;99557.40;1703339;82;21057;-70
2022/04/21 00:48:06;;;;;;;10.95;9.08;;;;;;;5.48;89.51;99562.34;1707006;82;21137;-70
2022/04/21 00:50:37;;;;;;;10.43;9.40;;;;;;;5.49;89.64;99555.27;1706954;82;21150;-69
2022/04/21 00:53:07;;;;;;;10.73;9.67;;;;;;;5.50;89.69;99557.73;1708099;82;21515;-69
2022/04/21 00:55:37;;;;;;;10.53;9.53;;;;;;;5.51;89.58;99550.11;1710135;82;21101;-69
2022/04/21 00:58:07;;;;;;;10.80;9.90;;;;;;;5.51;89.39;99548.80;1700184;83;21108;-70
2022/04/21 01:00:36;;;;;;;11.23;10.23;;;;;;;5.53;89.43;99552.08;1659920;85;21599;-70
2022/04/21 01:03:06;;;;;;;11.47;10.33;;;;;;;5.54;89.19;99547.61;1730854;82;20974;-71
2022/04/21 01:05:34;;;;;;;11.07;10.00;;;;;;;5.54;89.20;99539.20;1709404;82;21487;-68
2022/04/21 01:08:06;;;;;;;10.70;9.60;;;;;;;5.55;88.98;99534.22;1709690;82;21515;-70
2022/04/21 01:10:38;;;;;;;10.43;9.53;;;;;;;5.55;88.82;99532.09;1708706;84;21077;-70
2022/04/21 01:13:08;;;;;;;10.83;9.73;;;;;;;5.57;88.89;99533.55;1732320;82;21125;-70
2022/04/21 01:15:37;;;;;;;11.10;10.13;;;;;;;5.53;88.65;99529.61;1716039;82;21086;-68
2022/04/21 01:18:05;;;;;;;11.93;10.67;;;;;;;5.55;88.58;99528.94;1690536;82;20991;-70
2022/04/21 01:20:33;;;;;;;10.77;9.77;;;;;;;5.55;88.45;99527.61;1710109;83;21357;-69
2022/04/21 01:23:01;;;;;;;11.57;10.47;;;;;;;5.55;88.44;99531.58;1709236;82;21027;-71
2022/04/21 01:25:39;;;;;;;11.03;9.93;;;;;;;5.56;88.39;99532.42;1709576;82;21558;-70
2022/04/21 01:28:08;;;;;;;9.23;8.47;;;;;;;5.54;88.29;99528.63;1710843;82;21040;-70
2022/04/21 01:30:35;;;;;;;11.73;10.63;;;;;;;5.51;88.23;99528.97;1719444;82;21061;-70
2022/04/21 01:33:05;;;;;;;11.40;10.40;;;;;;;5.50;88.39;99529.98;1724283;81;21119;-68
2022/04/21 01:35:32;;;;;;;11.50;10.50;;;;;;;5.50;88.53;99527.34;1735479;82;21031;-69
2022/04/21 01:43:32;;;;;;;11.67;10.57;;;;;;;5.54;88.29;99517.20;1709556;82;21139;-71
2022/04/21 01:45:58;;;;;;;11.70;10.60;;;;;;;5.51;88.35;99521.55;1710596;82;21081;-71
2022/04/21 01:48:25;;;;;;;11.12;10.23;;;;;;;5.49;88.48;99511.14;1710852;82;21106;-70
2022/04/21 01:50:52;;;;;;;11.10;10.03;;;;;;;5.48;88.66;99506.84;1710032;82;21161;-70
2022/04/21 01:53:18;;;;;;;12.28;11.22;;;;;;;5.50;88.69;99518.09;1709382;82;21035;-71
2022/04/21 01:55:49;;;;;;;12.67;11.47;;;;;;;5.49;88.81;99517.75;1714642;82;21006;-70
2022/04/21 01:58:17;;;;;;;10.87;9.87;;;;;;;5.49;89.02;99514.30;1711138;82;21062;-70
2022/04/21 02:00:43;;;;;;;11.15;10.18;;;;;;;5.45;89.62;99522.56;1711786;82;21096;-70
2022/04/21 02:03:10;;;;;;;12.37;11.23;;;;;;;5.44;89.60;99522.25;1711004;82;21069;-70
2022/04/21 02:05:36;;;;;;;12.33;11.22;;;;;;;5.39;90.00;99515.84;1710615;82;21487;-70
2022/04/21 02:08:03;;;;;;;10.82;9.85;;;;;;;5.37;90.11;99513.37;1709917;82;21065;-69
2022/04/21 02:10:31;;;;;;;11.30;10.30;;;;;;;5.36;90.31;99509.58;1710898;82;22195;-70
2022/04/21 02:12:58;;;;;;;;;;;;;;;5.33;90.36;99509.44;1713155;82;21069;-70
2022/04/21 02:15:27;;;;;;;10.00;9.07;;;;;;;5.37;90.54;99513.84;1709872;82;20132;-70
2022/04/21 02:17:53;;;;;;;11.50;10.40;;;;;;;5.37;90.79;99507.24;1709506;82;21080;-70
2022/04/21 02:20:20;;;;;;;11.57;10.53;;;;;;;5.34;90.69;99510.25;1709992;82;21052;-70
2022/04/21 02:22:47;;;;;;;11.37;10.43;;;;;;;5.28;91.02;99507.00;1710153;82;21017;-69
2022/04/21 02:25:16;;;;;;;9.98;9.03;;;;;;;5.25;90.90;99505.03;1709525;82;21134;-68
2022/04/21 02:27:48;;;;;;;11.20;10.10;;;;;;;5.16;91.05;99491.54;1710685;82;21017;-69
2022/04/21 02:30:17;;;;;;;11.73;10.63;;;;;;;5.23;91.17;99507.00;1710579;82;21065;-68
2022/04/21 02:32:46;;;;;;;12.20;11.00;;;;;;;5.22;91.17;99508.01;1709683;82;21053;-69
2022/04/21 02:35:13;;;;;;;11.80;10.80;;;;;;;5.20;91.48;99499.44;1708407;82;21074;-69
2022/04/21 02:37:47;;;;;;;11.83;10.77;;;;;;;5.19;91.31;99499.60;1720228;82;21037;-67
2022/04/21 02:40:15;;;;;;;11.27;10.27;;;;;;;5.19;91.29;99507.02;1723350;82;21078;-69
2022/04/21 02:42:43;;;;;;;12.17;10.93;;;;;;;5.20;91.34;99507.36;1722845;82;21145;-69
2022/04/21 02:45:13;;;;;;;11.27;10.17;;;;;;;5.23;91.15;99504.35;1721758;82;21044;-69
2022/04/21 02:47:43;;;;;;;10.83;9.93;;;;;;;5.22;91.14;99505.87;1723197;82;21125;-70
2022/04/21 02:50:14;;;;;;;11.90;10.90;;;;;;;5.22;90.94;99506.69;1721801;82;21583;-69
2022/04/21 02:52:43;;;;;;;12.67;11.37;;;;;;;5.20;90.98;99503.40;1721712;82;21623;-70
2022/04/21 02:57:58;;;;;;;13.30;12.10;;;;;;;5.19;91.16;99504.38;1708225;82;21109;-70
2022/04/21 03:00:25;;;;;;;12.03;10.93;;;;;;;5.20;91.22;99506.55;1721897;82;21000;-71
2022/04/21 03:02:51;;;;;;;11.23;10.23;;;;;;;5.22;91.09;99509.83;1721750;82;21115;-69
2022/04/21 03:05:18;;;;;;;12.95;11.85;;;;;;;5.24;91.01;99506.02;1721720;82;21083;-69
2022/04/21 03:07:45;;;;;;;11.67;10.67;;;;;;;5.27;90.86;99506.15;1711826;82;21038;-70
2022/04/21 03:10:12;;;;;;;12.77;11.57;;;;;;;5.32;90.76;99512.25;1722367;82;21095;-70
2022/04/21 03:12:39;;;;;;;12.43;11.27;;;;;;;5.32;90.48;99506.46;1721500;82;21059;-69
2022/04/21 03:15:11;;;;;;;12.73;11.48;;;;;;;5.32;90.49;99509.10;1722694;82;21550;-68
2022/04/21 03:17:35;;;;;;;12.57;11.50;;;;;;;5.32;90.40;99510.93;1721682;82;21159;-68
2022/04/21 03:20:05;;;;;;;11.97;10.77;;;;;;;5.30;90.34;99512.92;1717442;82;20995;-69
2022/04/21 03:25:17;;;;;;;13.00;11.53;;;;;;;5.31;90.52;99514.55;1707044;82;21105;-71
2022/04/21 03:27:48;;;;;;;12.57;11.43;;;;;;;5.32;90.43;99513.57;1722537;82;22282;-70
2022/04/21 03:30:14;;;;;;;12.80;11.60;;;;;;;5.31;90.45;99511.41;1722652;82;21101;-70
2022/04/21 03:32:40;;;;;;;13.93;12.28;;;;;;;5.32;90.45;99513.06;1721562;82;21417;-69
2022/04/21 03:35:07;;;;;;;13.90;12.60;;;;;;;5.32;90.30;99513.57;1721572;82;21453;-70
2022/04/21 03:37:34;;;;;;;12.27;11.17;;;;;;;5.29;90.40;99517.36;1722504;82;21077;-71
2022/04/21 03:40:01;;;;;;;;;;;;;;;5.28;90.61;99514.92;1725530;82;21133;-69
2022/04/21 03:42:31;;;;;;;13.33;11.77;;;;;;;5.22;90.88;99523.86;1721715;82;20470;-69
2022/04/21 03:44:56;;;;;;;12.00;10.80;;;;;;;5.17;90.99;99515.63;1714886;82;21053;-69
2022/04/21 03:47:23;;;;;;;;;;;;;;;5.18;90.99;99519.92;1722406;82;21079;-70
2022/04/21 03:49:50;;;;;;;11.10;10.00;;;;;;;5.24;90.97;99516.58;1722311;82;20186;-70
2022/04/21 03:52:20;;;;;;;15.13;13.62;;;;;;;5.25;90.92;99517.39;1713615;82;21018;-69
2022/04/21 03:54:46;;;;;;;13.80;12.50;;;;;;;5.31;90.48;99522.48;1702547;82;21055;-69
2022/04/21 03:57:12;;;;;;;14.25;12.78;;;;;;;5.19;89.24;99518.91;1714424;82;21351;-69
2022/04/21 03:59:38;;;;;;;16.00;14.43;;;;;;;5.15;89.14;99515.48;1710511;82;21502;-68
2022/04/21 04:02:05;;;;;;;15.03;13.62;;;;;;;5.09;88.97;99513.03;1723441;82;21085;-71
2022/04/21 04:04:36;;;;;;;12.33;11.20;;;;;;;5.05;89.11;99523.13;1722152;82;21032;-69
2022/04/21 04:12:38;;;;;;;16.03;14.53;;;;;;;5.06;88.85;99519.97;1721972;81;21090;-69
2022/04/21 04:15:08;;;;;;;21.63;18.33;;;;;;;4.68;88.77;99460.41;1718039;82;21123;-69
2022/04/21 04:17:36;;;;;;;23.83;21.33;;;;;;;5.06;88.66;99533.18;1723018;82;21072;-69
2022/04/21 04:20:05;;;;;;;27.13;24.43;;;;;;;5.03;88.27;99537.51;1717649;82;21042;-69
2022/04/21 04:22:40;;;;;;;25.70;23.00;;;;;;;4.99;88.29;99526.45;1719001;82;21517;-73
2022/04/21 04:25:09;;;;;;;21.40;19.30;;;;;;;5.01;88.45;99530.22;1717293;82;21037;-70
2022/04/21 04:27:37;;;;;;;22.87;20.63;;;;;;;5.04;88.61;99543.91;1713783;82;21125;-69
2022/04/21 04:30:09;;;;;;;22.27;19.97;;;;;;;5.10;88.09;99539.77;1719871;82;21092;-69
2022/04/21 04:32:37;;;;;;;24.77;22.30;;;;;;;5.10;87.19;99551.64;1716080;82;20994;-70
2022/04/21 04:35:05;;;;;;;24.53;22.23;;;;;;;5.03;86.48;99534.86;1710412;82;22741;-71
2022/04/21 04:37:33;;;;;;;26.60;23.80;;;;;;;4.97;86.71;99542.13;1721671;82;21022;-69
2022/04/21 04:40:00;;;;;;;25.83;23.17;;;;;;;4.93;86.77;99542.16;1721651;82;21012;-69
2022/04/21 04:42:26;;;;;;;26.65;23.90;;;;;;;4.92;86.76;99543.16;1712888;82;21055;-70
2022/04/21 04:46:34;;;;;;;25.17;22.60;;;;;;;4.92;86.58;99539.20;1703379;82;21622;-69
2022/04/21 04:47:20;;;;;;;25.73;23.17;;;;;;;4.92;86.54;99539.20;1687918;83;21035;-70
2022/04/21 04:49:46;;;;;;;25.77;22.75;;;;;;;4.94;86.56;99542.49;1698895;83;21592;-70
2022/04/21 04:52:12;;;;;;;25.00;22.42;;;;;;;4.92;86.54;99537.88;1699641;83;21020;-71
2022/04/21 04:54:39;;;;;;;24.02;21.65;;;;;;;4.92;86.69;99543.98;1672732;83;21149;-68
2022/04/21 04:57:06;;;;;;;23.80;21.50;;;;;;;4.93;86.50;99544.80;1731596;81;21571;-69
2022/04/21 04:59:32;;;;;;;23.02;20.82;;;;;;;4.96;86.55;99544.46;1735046;81;21030;-70
2022/04/21 05:02:01;;;;;;;14.00;12.53;;;;;;;4.96;86.66;99551.06;1713056;81;21031;-71
2022/04/21 05:04:29;;;;;;;13.90;12.47;;;;;;;4.97;86.36;99546.94;1759641;81;21109;-70
2022/04/21 05:06:57;;;;;;;13.30;12.10;;;;;;;4.98;86.36;99553.85;1749172;80;21094;-68
2022/04/21 05:09:25;;;;;;;13.30;12.07;;;;;;;5.03;86.43;99548.07;1698048;81;21078;-70
2022/04/21 05:11:55;;;;;;;13.80;12.50;;;;;;;5.10;86.27;99547.69;1698130;81;21607;-70
2022/04/21 05:14:23;;;;;;;13.07;11.67;;;;;;;5.07;85.71;99547.55;1721339;81;21070;-70
2022/04/21 05:16:51;;;;;;;13.77;12.00;;;;;;;5.01;85.76;99550.87;1736754;81;21055;-69
2022/04/21 05:19:20;;;;;;;12.87;11.77;;;;;;;4.95;86.07;99553.37;1737607;81;21109;-67
2022/04/21 05:21:50;;;;;;;14.50;11.40;;;;;;;4.95;86.36;99552.05;1736925;81;21039;-69
2022/04/21 05:24:17;;;;;;;12.67;11.37;;;;;;;4.97;86.55;99554.02;1736785;81;21070;-69
2022/04/21 05:26:49;;;;;;;11.63;10.67;;;;;;;5.03;86.68;99552.03;1738422;82;21070;-70
2022/04/21 05:32:04;;;;;;;11.40;10.25;;;;;;;5.18;86.33;99557.39;1725761;81;21078;-69
2022/04/21 05:34:32;;;;;;;12.70;11.40;;;;;;;5.24;86.12;99558.86;1721491;81;21102;-70
2022/04/21 05:37:00;;;;;;;13.27;12.03;;;;;;;5.28;85.56;99552.73;1736638;81;21139;-69
2022/04/21 05:39:28;;;;;;;11.50;10.50;;;;;;;5.33;85.25;99554.84;1734423;81;21077;-69
2022/04/21 05:42:00;;;;;;;11.27;10.37;;;;;;;5.37;85.35;99550.38;1737118;81;21498;-68
2022/04/21 05:44:29;;;;;;;10.73;9.77;;;;;;;5.45;85.13;99545.53;1737104;81;21022;-69
2022/04/21 05:46:58;;;;;;;10.33;9.43;;;;;;;5.42;84.73;99544.05;1737009;81;21083;-71
2022/04/21 05:49:27;;;;;;;9.53;8.70;;;;;;;5.50;84.45;99549.81;1729867;81;21368;-70
2022/04/21 05:51:56;;;;;;;10.97;9.97;;;;;;;5.54;84.28;99559.03;1718147;81;21062;-71
2022/04/21 05:54:23;;;;;;;11.23;10.23;;;;;;;5.53;83.95;99547.30;1709442;81;21043;-70
2022/04/21 05:56:51;;;;;;;10.03;9.13;;;;;;;5.60;83.79;99544.29;1737154;81;21566;-71
2022/04/21 05:59:17;;;;;;;;;;;;;;;5.68;84.02;99550.02;1739610;81;21069;-69
2022/04/21 06:01:44;;;;;;;9.93;9.07;;;;;;;5.71;83.34;99550.97;1709405;81;20163;-70
2022/04/21 06:04:10;;;;;;;11.33;10.23;;;;;;;5.66;82.97;99552.33;1714390;81;21039;-70
2022/04/21 06:06:39;;;;;;;9.80;8.90;;;;;;;5.70;83.12;99551.98;1697969;81;21558;-70
2022/04/21 06:09:05;;;;;;;10.47;9.57;;;;;;;5.77;83.12;99551.10;1717534;81;21646;-69
2022/04/21 06:11:33;;;;;;;10.00;8.97;;;;;;;5.88;83.16;99552.52;1734553;81;21054;-72
2022/04/21 06:14:00;;;;;;;8.63;7.90;;;;;;;5.99;82.32;99556.10;1737091;81;21074;-69
2022/04/21 06:16:28;;;;;;;10.03;8.70;;;;;;;6.03;81.05;99554.73;1738246;81;21689;-69
2022/04/21 06:18:56;;;;;;;9.20;8.40;;;;;;;6.08;81.10;99548.90;1727402;81;21129;-69
2022/04/21 06:21:23;;;;;;;9.63;8.83;;;;;;;6.15;80.73;99549.84;1730457;81;21475;-70
2022/04/21 06:23:50;;;;;;;9.00;8.23;;;;;;;6.23;80.73;99547.61;1672728;84;21045;-71
2022/04/21 06:26:17;;;;;;;8.37;7.67;;;;;;;6.33;80.62;99553.97;1677084;84;21153;-69
2022/04/21 06:28:44;;;;;;;8.77;8.07;;;;;;;6.37;79.14;99553.45;1676859;84;21082;-69
2022/04/21 06:31:11;;;;;;;8.80;8.10;;;;;;;6.32;78.61;99557.13;1659179;84;21042;-71
2022/04/21 06:33:37;;;;;;;7.92;7.20;;;;;;;6.35;78.93;99552.00;1682444;82;21071;-69
2022/04/21 06:36:06;;;;;;;8.75;7.97;;;;;;;6.29;79.12;99550.05;1713741;82;21066;-69
2022/04/21 06:38:34;;;;;;;9.23;8.30;;;;;;;6.24;79.48;99562.51;1713511;82;21029;-70
2022/04/21 06:41:01;;;;;;;9.50;8.75;;;;;;;6.21;79.77;99561.53;1713491;82;21128;-69
2022/04/21 06:48:59;;;;;;;8.57;7.97;;;;;;;6.18;80.75;99564.55;1749190;80;21044;-71
2022/04/21 06:51:30;;;;;;;9.50;8.60;;;;;;;6.22;81.04;99555.25;1736335;80;22034;-71
2022/04/21 06:53:56;;;;;;;9.10;8.40;;;;;;;6.34;81.20;99564.39;1741666;80;21067;-69
2022/04/21 06:56:22;;;;;;;9.43;8.63;;;;;;;6.51;80.91;99562.91;1747341;80;21021;-70
2022/04/21 06:58:51;;;;;;;8.83;8.03;;;;;;;6.67;79.83;99565.41;1749808;80;21215;-69
2022/04/21 07:01:19;;;;;;;8.67;8.03;;;;;;;6.80;78.42;99570.07;1745481;80;21028;-71
2022/04/21 07:03:46;;;;;;;10.63;9.53;;;;;;;6.87;78.14;99567.49;1731720;80;21159;-72
2022/04/21 07:06:12;;;;;;;10.10;9.28;;;;;;;6.84;77.33;99571.34;1749066;80;21630;-71
2022/04/21 07:08:38;;;;;;;11.08;10.08;;;;;;;6.83;77.48;99569.17;1749422;80;21124;-70
2022/04/21 07:11:04;;;;;;;14.65;13.35;;;;;;;6.84;77.89;99568.70;1749919;80;21537;-70
2022/04/21 07:13:33;;;;;;;14.27;12.87;;;;;;;6.46;77.79;99496.44;1723861;80;21009;-71
2022/04/21 07:15:59;;;;;;;10.73;9.77;;;;;;;6.96;77.81;99565.08;1733288;80;21083;-72
2022/04/21 07:18:25;;;;;;;11.80;10.80;;;;;;;7.01;77.02;99575.44;1730659;80;21076;-72
2022/04/21 07:20:52;;;;;;;10.37;9.47;;;;;;;7.11;77.00;99570.36;1748917;80;21039;-71
2022/04/21 07:23:20;;;;;;;10.43;9.47;;;;;;;7.19;75.78;99568.41;1749105;82;21131;-71
2022/04/21 07:25:49;;;;;;;10.50;9.63;;;;;;;7.18;74.95;99569.44;1749442;80;21105;-72
2022/04/21 07:28:16;;;;;;;11.97;10.83;;;;;;;7.19;75.16;99572.91;1750564;81;21061;-69
2022/04/21 07:32:14;;;;;;;14.30;13.00;;;;;;;7.30;74.77;99576.91;1780628;79;22976;-70
2022/04/21 07:34:40;;;;;;;12.78;11.57;;;;;;;7.26;74.83;99573.81;1741800;81;21462;-70
2022/04/21 07:37:08;;;;;;;10.50;9.63;;;;;;;7.26;74.73;99565.05;1732129;81;21160;-71
2022/04/21 07:39:37;;;;;;;10.33;9.33;;;;;;;7.30;74.09;99583.55;1736345;81;21536;-70
2022/04/21 07:42:05;;;;;;;9.17;8.27;;;;;;;7.33;73.84;99578.70;1725805;82;21002;-69
2022/04/21 07:44:36;;;;;;;8.73;7.93;;;;;;;7.31;73.73;99581.19;1724698;81;21010;-70
2022/04/21 07:47:06;;;;;;;10.03;9.00;;;;;;;7.27;73.34;99586.55;1733323;82;21128;-70
2022/04/21 07:49:46;;;;;;;9.23;8.37;;;;;;;7.32;73.82;99589.48;1733058;81;21086;-71
2022/04/21 07:55:16;;;;;;;10.30;8.97;;;;;;;7.38;73.21;99586.08;1723085;81;21476;-70
2022/04/21 07:57:46;;;;;;;10.73;9.63;;;;;;;7.30;73.33;99591.50;1729482;83;21013;-72
2022/04/21 08:00:16;;;;;;;10.67;9.63;;;;;;;7.31;73.88;99592.64;1713382;81;21103;-70
2022/04/21 08:02:46;;;;;;;9.73;8.83;;;;;;;7.38;73.57;99600.66;1720407;83;21071;-70
2022/04/21 08:05:17;;;;;;;10.53;9.53;;;;;;;7.44;73.37;99599.94;1726696;81;22136;-70
2022/04/21 08:07:46;;;;;;;10.87;9.43;;;;;;;7.50;73.13;99601.84;1720881;81;21057;-71
2022/04/21 08:10:14;;;;;;;10.27;9.37;;;;;;;7.46;73.00;99603.23;1727526;81;21032;-72
2022/04/21 08:12:48;;;;;;;11.30;10.20;;;;;;;7.46;73.20;99602.38;1710676;83;21054;-71
2022/04/21 08:15:25;;;;;;;10.87;9.87;;;;;;;7.45;72.99;99610.03;1701135;83;21063;-70
2022/04/21 08:17:55;;;;;;;10.50;9.53;;;;;;;7.31;72.89;99622.28;1702115;83;21536;-69
2022/04/21 08:20:23;;;;;;;11.10;10.00;;;;;;;7.24;73.29;99626.19;1701788;83;21099;-70
2022/04/21 08:22:49;;;;;;;10.33;9.23;;;;;;;7.26;73.07;99624.69;1723815;81;21009;-70
2022/04/21 08:33:36;;;;;;;12.13;11.08;;;;;;;6.93;74.64;99644.91;1705168;80;21029;-72
2022/04/21 08:36:03;;;;;;;12.00;10.98;;;;;;;6.90;74.52;99630.21;1755102;81;21069;-69
2022/04/21 08:38:33;;;;;;;12.20;11.10;;;;;;;6.98;74.25;99641.22;1754913;80;21022;-67
2022/04/21 08:41:05;;;;;;;10.20;9.10;;;;;;;7.07;73.84;99638.81;1752523;80;21094;-73
2022/04/21 08:43:36;;;;;;;10.27;9.37;;;;;;;7.16;74.06;99636.39;1752394;82;21061;-71
2022/04/21 08:46:04;;;;;;;11.80;10.17;;;;;;;7.24;74.33;99634.66;1753032;80;21093;-70
2022/04/21 08:48:35;;;;;;;11.50;10.43;;;;;;;7.30;74.22;99632.59;1734496;82;21543;-72
2022/04/21 08:51:02;;;;;;;11.35;10.35;;;;;;;7.36;73.61;99638.47;1754447;80;21523;-71
2022/04/21 08:53:30;;;;;;;10.83;9.83;;;;;;;7.48;73.42;99664.84;1753414;80;21019;-71
2022/04/21 08:55:57;;;;;;;11.13;10.23;;;;;;;7.65;72.70;99656.66;1753174;81;21033;-70
2022/04/21 08:58:24;;;;;;;11.50;10.53;;;;;;;7.74;72.31;99648.44;1760479;81;21030;-72
2022/04/21 09:00:53;;;;;;;13.43;12.13;;;;;;;7.78;72.25;99656.33;1736928;81;21074;-73
2022/04/21 09:03:20;;;;;;;12.53;11.23;;;;;;;7.75;71.98;99654.05;1717491;82;21515;-71
2022/04/21 09:05:48;;;;;;;11.97;10.93;;;;;;;7.67;72.26;99656.00;1717861;82;21059;-72
2022/04/21 09:08:26;;;;;;;11.73;10.63;;;;;;;7.64;72.51;99662.99;1741897;82;21062;-71
2022/04/21 09:11:10;;;;;;;11.00;10.00;;;;;;;7.52;72.30;99658.16;1720098;82;21588;-73
2022/04/21 09:13:44;;;;;;;11.10;10.13;;;;;;;7.54;72.63;99664.10;1701555;82;21622;-72
2022/04/21 09:16:20;;;;;;;13.20;12.07;;;;;;;7.59;72.66;99653.77;1739605;82;21060;-71
2022/04/21 09:18:45;;;;;;;12.60;10.43;;;;;;;7.63;73.09;99660.01;1704964;83;21148;-71
2022/04/21 09:21:15;;;;;;;10.77;9.77;;;;;;;7.64;72.55;99668.30;1716949;82;21118;-71
2022/04/21 09:23:44;;;;;;;13.80;12.30;;;;;;;7.54;72.59;99681.85;1721250;82;21015;-70
2022/04/21 09:26:15;;;;;;;13.40;12.23;;;;;;;7.45;73.21;99673.67;1720846;82;21404;-70
2022/04/21 09:28:42;;;;;;;12.50;11.40;;;;;;;7.46;73.56;99672.65;1721424;82;21130;-72
2022/04/21 09:31:10;;;;;;;13.33;12.13;;;;;;;7.48;73.64;99664.84;1721402;82;21047;-73
2022/04/21 09:33:44;;;;;;;12.50;11.37;;;;;;;7.58;74.22;99669.34;1720580;82;21093;-73
2022/04/21 09:36:11;;;;;;;13.23;12.07;;;;;;;7.64;73.41;99666.97;1728783;82;21137;-72
2022/04/21 09:38:38;;;;;;;;;;;;;;;7.63;73.51;99658.69;1735845;82;21121;-73
2022/04/21 09:41:13;;;;;;;13.28;11.97;;;;;;;7.66;73.39;99657.81;1727417;82;20182;-71
2022/04/21 09:43:42;;;;;;;10.33;9.40;;;;;;;7.66;73.65;99665.77;1721376;82;21643;-71
2022/04/21 09:46:23;;;;;;;12.40;11.10;;;;;;;7.78;72.74;99666.13;1707502;83;21595;-71
2022/04/21 09:48:54;;;;;;;11.67;10.40;;;;;;;7.89;72.79;99663.48;1725942;82;21156;-72
2022/04/21 09:51:27;;;;;;;11.43;10.37;;;;;;;7.94;72.38;99664.56;1719601;82;21039;-71
2022/04/21 09:54:10;;;;;;;13.07;11.67;;;;;;;7.88;71.96;99687.87;1709814;82;21073;-70
2022/04/21 09:56:34;;;;;;;12.67;11.33;;;;;;;7.79;72.01;99686.33;1725635;82;21523;-72
2022/04/21 09:59:07;;;;;;;11.23;10.10;;;;;;;7.70;72.38;99671.02;1705918;82;21154;-71
2022/04/21 10:01:38;;;;;;;11.83;10.30;;;;;;;7.75;72.75;99679.76;1676821;83;21149;-71
2022/04/21 10:04:08;;;;;;;11.23;10.23;;;;;;;7.65;72.90;99680.05;1684889;83;21192;-72
2022/04/21 10:06:41;;;;;;;12.40;11.20;;;;;;;7.44;73.21;99675.99;1695484;83;21042;-71
2022/04/21 10:09:09;;;;;;;11.47;10.47;;;;;;;7.36;73.69;99685.68;1682557;83;21108;-70
2022/04/21 10:11:38;;;;;;;10.27;9.37;;;;;;;7.29;74.25;99682.63;1688703;83;21069;-70
2022/04/21 10:14:08;;;;;;;10.97;9.97;;;;;;;7.31;74.28;99693.86;1666071;84;21175;-70
2022/04/21 10:16:36;;;;;;;11.63;10.43;;;;;;;7.33;74.02;99694.53;1695325;83;21103;-71
2022/04/21 10:19:02;;;;;;;12.53;11.33;;;;;;;7.36;73.85;99688.33;1677284;83;21134;-70
2022/04/21 10:21:48;;;;;;;11.80;10.60;;;;;;;7.34;74.23;99694.84;1648592;85;21102;-70
2022/04/21 10:24:27;;;;;;;11.40;10.25;;;;;;;7.36;74.44;99698.94;1631655;85;21077;-70
2022/04/21 10:26:54;;;;;;;;;;;;;;;7.49;73.90;99714.21;1635537;86;21054;-70
2022/04/21 10:29:27;;;;;;;10.40;9.50;;;;;;;7.37;73.46;99691.83;1661316;85;20186;-71
2022/04/21 10:32:00;;;;;;;11.30;10.27;;;;;;;7.49;73.50;99721.35;1630200;86;21078;-72
2022/04/21 10:34:37;;;;;;;13.55;10.72;;;;;;;7.49;73.47;99718.19;1709148;82;21141;-71
2022/04/21 10:37:17;;;;;;;11.63;10.53;;;;;;;7.47;73.75;99725.51;1710875;83;21129;-71
2022/04/21 10:40:10;;;;;;;11.13;10.03;;;;;;;7.45;73.87;99720.89;1710706;83;21119;-71
2022/04/21 10:43:03;;;;;;;10.53;9.53;;;;;;;7.50;74.00;99718.52;1701152;83;21245;-74
2022/04/21 10:45:31;;;;;;;10.53;9.53;;;;;;;7.60;73.41;99719.56;1621586;86;21573;-71
2022/04/21 10:48:13;;;;;;;11.00;10.00;;;;;;;7.65;73.38;99730.94;1690433;83;21042;-69
2022/04/21 10:50:43;;;;;;;12.97;11.80;;;;;;;7.60;72.67;99727.01;1693456;83;21569;-72
2022/04/21 10:58:50;;;;;;;11.47;10.27;;;;;;;7.35;73.82;99731.78;1670040;84;20445;-69
2022/04/21 11:01:27;;;;;;;11.47;10.33;;;;;;;7.30;74.04;99730.67;1693262;83;21321;-70
2022/04/21 11:04:19;;;;;;;11.78;10.75;;;;;;;7.34;73.96;99734.60;1668414;83;21562;-70
2022/04/21 11:06:51;;;;;;;12.47;11.27;;;;;;;7.28;74.12;99730.03;1678648;84;21158;-71
2022/04/21 11:09:50;;;;;;;12.33;11.13;;;;;;;7.19;74.57;99727.45;1685669;83;21019;-70
2022/04/21 11:12:43;;;;;;;11.03;9.93;;;;;;;7.18;74.89;99728.98;1672734;83;21197;-70
2022/04/21 11:15:39;;;;;;;11.67;10.50;;;;;;;7.25;74.87;99729.06;1670414;84;21003;-71
2022/04/21 11:18:12;;;;;;;9.33;8.43;;;;;;;7.32;74.44;99739.27;1670176;84;21054;-71
2022/04/21 11:20:42;;;;;;;10.40;9.40;;;;;;;7.29;74.35;99743.11;1669663;84;21034;-71
2022/04/21 11:23:12;;;;;;;12.00;10.83;;;;;;;7.31;74.32;99740.26;1686892;83;21088;-68
2022/04/21 11:25:41;;;;;;;11.50;10.30;;;;;;;7.27;74.57;99741.63;1702170;83;21007;-71
2022/04/21 11:28:10;;;;;;;9.70;8.80;;;;;;;7.30;74.70;99738.12;1692343;83;21124;-70
2022/04/21 11:30:37;;;;;;;10.07;9.17;;;;;;;7.39;74.73;99741.52;1696176;83;21024;-71
2022/04/21 11:33:10;;;;;;;9.13;8.33;;;;;;;7.51;74.25;99739.23;1701923;83;21169;-70
2022/04/21 11:35:36;;;;;;;9.40;8.50;;;;;;;7.64;73.89;99739.91;1683046;83;21536;-72
2022/04/21 11:38:04;;;;;;;10.20;9.40;;;;;;;7.58;73.38;99748.91;1693773;83;21108;-73
2022/04/21 11:40:39;;;;;;;9.53;8.67;;;;;;;7.44;73.80;99753.73;1688414;84;21043;-72
2022/04/21 11:43:16;;;;;;;8.40;7.37;;;;;;;7.31;74.10;99760.14;1660113;85;21064;-69
2022/04/21 11:46:05;;;;;;;8.33;7.53;;;;;;;7.24;74.40;99753.43;1677478;85;21607;-72
2022/04/21 11:48:38;;;;;;;7.72;6.58;;;;;;;7.20;74.49;99754.80;1629676;87;21093;-72
2022/04/21 11:51:05;;;;;;;8.27;7.47;;;;;;;7.22;74.46;99758.09;1693749;83;21059;-70
2022/04/21 11:53:40;;;;;;;6.97;6.37;;;;;;;7.24;74.61;99745.98;1691748;84;21026;-71
2022/04/21 11:56:11;;;;;;;8.33;7.60;;;;;;;7.21;74.43;99754.63;1662591;85;21049;-71
2022/04/21 11:58:41;;;;;;;8.03;6.90;;;;;;;7.15;74.64;99757.16;1663247;84;21097;-70
2022/04/21 12:06:55;;;;;;;8.30;7.60;;;;;;;7.23;74.66;99764.20;1676669;85;21023;-71
2022/04/21 12:09:27;;;;;;;7.20;6.60;;;;;;;7.26;74.74;99764.67;1660217;85;21069;-74
2022/04/21 12:11:57;;;;;;;8.80;8.00;;;;;;;7.29;74.66;99768.78;1648986;84;21093;-72
2022/04/21 12:14:25;;;;;;;10.00;9.10;;;;;;;7.28;74.52;99767.96;1654813;85;21137;-70
2022/04/21 12:17:04;;;;;;;8.20;7.40;;;;;;;7.19;75.03;99765.06;1643344;85;21094;-71
2022/04/21 12:19:40;;;;;;;9.40;8.40;;;;;;;7.03;75.61;99766.05;1654918;85;21089;-70
2022/04/21 12:22:15;;;;;;;9.73;8.30;;;;;;;6.95;76.13;99767.42;1648093;84;21086;-71
2022/04/21 12:24:54;;;;;;;7.53;6.93;;;;;;;6.95;76.20;99772.73;1631334;86;21064;-71
2022/04/21 12:27:34;;;;;;;8.83;8.03;;;;;;;7.00;75.99;99769.05;1658411;85;21119;-70
2022/04/21 12:30:05;;;;;;;8.43;7.73;;;;;;;7.08;75.77;99779.56;1660871;85;21078;-70
2022/04/21 12:32:38;;;;;;;9.17;8.37;;;;;;;7.10;75.64;99764.34;1661655;85;21058;-73
2022/04/21 12:35:10;;;;;;;11.30;8.17;;;;;;;7.08;75.76;99770.80;1664517;85;21080;-71